createdAt,value
2022-12-08T00:01:12.605Z,1.45
2022-12-08T00:03:41.378Z,1.59
2022-12-08T00:06:43.103Z,1.59
2022-12-08T00:09:23.716Z,1.59
2022-12-08T00:11:53.537Z,1.65
2022-12-08T00:14:23.996Z,1.55
2022-12-08T00:20:42.550Z,1.59
2022-12-08T00:23:10.537Z,1.58
2022-12-08T00:25:39.855Z,1.60
2022-12-08T00:28:12.153Z,1.57
2022-12-08T00:30:40.974Z,1.56
2022-12-08T00:33:09.112Z,1.62
2022-12-08T00:35:42.801Z,1.68
2022-12-08T00:38:11.054Z,1.64
2022-12-08T00:40:45.172Z,1.71
2022-12-08T00:43:13.044Z,1.68
2022-12-08T00:45:41.292Z,1.71
2022-12-08T00:48:11.793Z,1.73
2022-12-08T00:50:39.686Z,1.75
2022-12-08T00:53:07.427Z,1.78
2022-12-08T00:55:35.398Z,1.69
2022-12-08T00:58:04.662Z,1.64
2022-12-08T01:00:32.565Z,1.72
2022-12-08T01:03:00.588Z,1.72
2022-12-08T01:05:28.492Z,1.77
2022-12-08T01:07:56.414Z,1.67
2022-12-08T01:10:24.455Z,1.71
2022-12-08T01:12:52.836Z,1.81
2022-12-08T01:15:25.227Z,1.80
2022-12-08T01:17:53.009Z,1.80
2022-12-08T01:20:20.751Z,1.72
2022-12-08T01:22:48.602Z,1.72
2022-12-08T01:25:16.519Z,1.78
2022-12-08T01:27:44.305Z,1.71
2022-12-08T01:30:13.290Z,1.75
2022-12-08T01:32:42.645Z,1.57
2022-12-08T01:35:10.672Z,1.66
2022-12-08T01:37:38.613Z,1.73
2022-12-08T01:40:08.066Z,1.70
2022-12-08T01:42:38.297Z,1.61
2022-12-08T01:45:09.149Z,1.75
2022-12-08T01:47:41.997Z,1.74
2022-12-08T01:50:14.235Z,1.61
2022-12-08T01:52:44.147Z,1.67
2022-12-08T01:55:17.475Z,1.53
2022-12-08T01:57:52.001Z,1.64
2022-12-08T02:00:22.991Z,1.62
2022-12-08T02:02:56.275Z,1.51
2022-12-08T02:05:28.466Z,1.58
2022-12-08T02:07:58.116Z,1.63
2022-12-08T02:10:30.545Z,1.62
2022-12-08T02:13:02.179Z,1.69
2022-12-08T02:15:38.688Z,1.61
2022-12-08T02:18:20.559Z,1.64
2022-12-08T02:21:00.202Z,1.61
2022-12-08T02:23:37.740Z,1.55
2022-12-08T02:26:34.552Z,1.43
2022-12-08T02:29:37.434Z,1.60
2022-12-08T02:32:24.953Z,1.53
2022-12-08T02:35:03.889Z,1.50
2022-12-08T02:37:35.361Z,1.59
2022-12-08T02:40:08.584Z,1.57
2022-12-08T02:42:44.033Z,1.53
2022-12-08T02:45:18.442Z,1.51
2022-12-08T02:47:46.470Z,1.44
2022-12-08T02:50:16.731Z,1.56
2022-12-08T02:52:46.347Z,1.61
2022-12-08T02:55:25.836Z,1.60
2022-12-08T02:58:06.732Z,1.46
2022-12-08T03:00:45.441Z,1.45
2022-12-08T03:03:26.739Z,1.46
2022-12-08T03:06:06.577Z,1.52
2022-12-08T03:08:42.536Z,1.51
2022-12-08T03:11:15.566Z,1.46
2022-12-08T03:13:46.864Z,1.57
2022-12-08T03:16:19.955Z,1.58
2022-12-08T03:18:52.257Z,1.47
2022-12-08T03:21:22.889Z,1.57
2022-12-08T03:23:55.237Z,1.57
2022-12-08T03:26:30.196Z,1.51
2022-12-08T03:28:58.937Z,1.64
2022-12-08T03:31:30.293Z,1.64
2022-12-08T03:34:05.958Z,1.51
2022-12-08T03:36:36.380Z,1.56
2022-12-08T03:39:04.519Z,1.51
2022-12-08T03:41:32.342Z,1.43
2022-12-08T03:44:00.371Z,1.38
2022-12-08T03:48:58.152Z,1.31
2022-12-08T03:51:27.190Z,1.34
2022-12-08T03:53:56.768Z,1.27
2022-12-08T03:56:26.778Z,1.43
2022-12-08T03:58:55.536Z,1.47
2022-12-08T04:01:23.417Z,1.43
2022-12-08T04:03:51.720Z,1.44
2022-12-08T04:06:20.429Z,1.55
2022-12-08T04:08:48.292Z,1.53
2022-12-08T04:11:17.815Z,1.47
2022-12-08T04:13:45.732Z,1.58
2022-12-08T04:16:17.699Z,1.56
2022-12-08T04:18:45.823Z,1.59
2022-12-08T04:21:13.849Z,1.50
2022-12-08T04:23:41.914Z,1.44
2022-12-08T04:26:10.079Z,1.34
2022-12-08T04:28:39.258Z,1.43
2022-12-08T04:31:07.558Z,1.55
2022-12-08T04:33:36.117Z,1.58
2022-12-08T04:36:04.195Z,1.57
2022-12-08T04:38:32.164Z,1.51
2022-12-08T04:40:59.996Z,1.47
2022-12-08T04:43:27.905Z,1.52
2022-12-08T04:45:57.022Z,1.43
2022-12-08T04:48:26.093Z,1.56
2022-12-08T04:50:53.956Z,1.65
2022-12-08T04:53:22.017Z,1.59
2022-12-08T04:55:50.315Z,1.60
2022-12-08T04:58:20.005Z,1.70
2022-12-08T05:00:48.582Z,1.69
2022-12-08T05:03:21.385Z,1.63
2022-12-08T05:05:53.105Z,1.50
2022-12-08T05:08:21.269Z,1.53
2022-12-08T05:10:49.110Z,1.65
2022-12-08T05:13:17.036Z,1.65
2022-12-08T05:15:45.171Z,1.65
2022-12-08T05:18:13.380Z,1.73
2022-12-08T05:20:42.587Z,1.73
2022-12-08T05:23:10.566Z,1.78
2022-12-08T05:25:38.383Z,1.77
2022-12-08T05:28:39.520Z,1.83
2022-12-08T05:30:54.223Z,1.98
2022-12-08T05:33:21.999Z,1.88
2022-12-08T05:35:51.309Z,1.93
2022-12-08T05:38:19.110Z,1.87
2022-12-08T05:40:46.952Z,1.91
2022-12-08T05:43:15.200Z,1.96
2022-12-08T05:45:43.051Z,1.98
2022-12-08T05:48:11.453Z,1.89
2022-12-08T05:50:39.154Z,1.91
2022-12-08T05:53:08.277Z,1.96
2022-12-08T05:55:36.003Z,1.91
2022-12-08T05:58:07.817Z,1.87
2022-12-08T06:00:36.046Z,1.93
2022-12-08T06:03:04.126Z,2.02
2022-12-08T06:05:34.033Z,1.97
2022-12-08T06:08:02.034Z,1.97
2022-12-08T06:10:31.282Z,1.98
2022-12-08T06:12:59.405Z,1.96
2022-12-08T06:15:28.427Z,2.04
2022-12-08T06:17:56.281Z,2.08
2022-12-08T06:20:24.131Z,2.05
2022-12-08T06:22:52.051Z,2.06
2022-12-08T06:25:20.767Z,2.06
2022-12-08T06:27:50.007Z,2.14
2022-12-08T06:30:18.700Z,2.16
2022-12-08T06:32:46.434Z,2.17
2022-12-08T06:35:14.405Z,2.09
2022-12-08T06:37:42.309Z,2.13
2022-12-08T06:40:11.088Z,2.17
2022-12-08T06:42:44.743Z,2.17
2022-12-08T06:45:15.444Z,2.25
2022-12-08T06:47:43.289Z,2.23
2022-12-08T06:50:12.805Z,2.19
2022-12-08T06:52:51.764Z,2.15
2022-12-08T06:55:57.552Z,2.16
2022-12-08T06:58:15.252Z,2.13
2022-12-08T07:00:44.651Z,2.11
2022-12-08T07:03:13.561Z,2.15
2022-12-08T07:05:41.418Z,2.07
2022-12-08T07:08:10.057Z,2.21
2022-12-08T07:10:38.244Z,2.22
2022-12-08T07:13:06.153Z,2.27
2022-12-08T07:15:34.260Z,2.34
2022-12-08T07:18:03.593Z,2.31
2022-12-08T07:20:31.535Z,2.40
2022-12-08T07:22:59.650Z,2.43
2022-12-08T07:25:27.663Z,2.50
2022-12-08T07:27:55.539Z,2.57
2022-12-08T07:30:23.538Z,2.57
2022-12-08T07:32:51.258Z,2.50
2022-12-08T07:35:21.588Z,2.57
2022-12-08T07:37:50.697Z,2.57
2022-12-08T07:40:19.712Z,2.57
2022-12-08T07:42:47.925Z,2.59
2022-12-08T07:45:15.974Z,2.61
2022-12-08T07:47:43.800Z,2.61
2022-12-08T07:50:12.129Z,2.68
2022-12-08T07:52:41.513Z,2.67
2022-12-08T07:55:10.714Z,2.72
2022-12-08T07:57:38.668Z,2.68
2022-12-08T08:00:08.316Z,2.69
2022-12-08T08:02:36.392Z,2.74
2022-12-08T08:05:04.829Z,2.73
2022-12-08T08:07:32.972Z,2.78
2022-12-08T08:10:02.727Z,2.76
2022-12-08T08:12:32.300Z,2.78
2022-12-08T08:15:01.370Z,2.74
2022-12-08T08:17:30.043Z,2.77
2022-12-08T08:19:58.390Z,2.74
2022-12-08T08:22:26.565Z,2.82
2022-12-08T08:24:54.591Z,2.92
2022-12-08T08:27:25.172Z,2.96
2022-12-08T08:29:53.048Z,2.96
2022-12-08T08:32:20.909Z,2.91
2022-12-08T08:34:48.813Z,2.94
2022-12-08T08:37:16.868Z,2.95
2022-12-08T08:39:44.874Z,2.96
2022-12-08T08:42:16.022Z,3.03
2022-12-08T08:44:46.520Z,3.01
2022-12-08T08:47:14.555Z,3.08
2022-12-08T08:49:42.891Z,3.09
2022-12-08T08:52:11.626Z,3.17
2022-12-08T08:54:39.971Z,3.12
2022-12-08T08:57:07.931Z,3.06
2022-12-08T08:59:35.816Z,3.10
2022-12-08T09:02:05.022Z,3.21
2022-12-08T09:04:33.217Z,3.27
2022-12-08T09:07:02.120Z,3.27
2022-12-08T09:09:31.084Z,3.26
2022-12-08T09:11:58.979Z,3.37
2022-12-08T09:14:27.934Z,3.45
2022-12-08T09:16:56.058Z,3.50
2022-12-08T09:19:26.663Z,3.46
2022-12-08T09:21:54.856Z,3.54
2022-12-08T09:24:24.106Z,3.48
2022-12-08T09:26:52.310Z,3.52
2022-12-08T09:29:20.260Z,3.66
2022-12-08T09:31:48.277Z,3.73
2022-12-08T09:34:16.323Z,3.78
2022-12-08T09:36:45.565Z,3.77
2022-12-08T09:39:17.669Z,3.76
2022-12-08T09:41:51.002Z,3.73
2022-12-08T09:44:40.981Z,3.81
2022-12-08T09:47:20.449Z,3.79
2022-12-08T09:49:54.284Z,3.88
2022-12-08T09:52:28.776Z,3.91
2022-12-08T09:54:59.928Z,3.94
2022-12-08T09:57:28.278Z,4.03
2022-12-08T10:00:01.945Z,4.14
2022-12-08T10:02:31.629Z,4.06
2022-12-08T10:05:00.532Z,4.19
2022-12-08T10:07:40.414Z,4.14
2022-12-08T10:10:21.924Z,4.27
2022-12-08T10:12:58.265Z,4.34
2022-12-08T10:15:41.699Z,4.37
2022-12-08T10:18:15.560Z,4.51
2022-12-08T10:20:45.847Z,4.42
2022-12-08T10:23:26.775Z,4.40
2022-12-08T10:26:02.024Z,4.42
2022-12-08T10:28:30.240Z,4.43
2022-12-08T10:30:58.217Z,4.43
2022-12-08T10:33:26.222Z,4.33
2022-12-08T10:35:56.302Z,4.25
2022-12-08T10:38:30.621Z,4.23
2022-12-08T10:41:05.227Z,4.19
2022-12-08T10:43:34.625Z,4.28
2022-12-08T10:46:13.961Z,4.29
2022-12-08T10:48:50.934Z,4.26
2022-12-08T10:51:29.857Z,4.17
2022-12-08T10:53:59.346Z,4.36
2022-12-08T10:56:30.049Z,4.34
2022-12-08T10:59:15.142Z,4.25
2022-12-08T11:01:47.548Z,4.27
2022-12-08T11:04:19.591Z,4.29
2022-12-08T11:06:49.455Z,4.30
2022-12-08T11:09:38.427Z,4.27
2022-12-08T11:12:14.700Z,4.20
2022-12-08T11:14:51.756Z,4.15
2022-12-08T11:17:28.253Z,4.20
2022-12-08T11:19:59.204Z,4.14
2022-12-08T11:22:28.678Z,4.17
2022-12-08T11:25:03.541Z,4.11
2022-12-08T11:27:33.903Z,4.09
2022-12-08T11:30:03.653Z,4.12
2022-12-08T11:32:32.597Z,4.13
2022-12-08T11:35:04.281Z,4.11
2022-12-08T11:37:40.340Z,4.10
2022-12-08T11:40:18.921Z,3.98
2022-12-08T11:42:59.369Z,4.06
2022-12-08T11:45:31.653Z,4.03
2022-12-08T11:48:11.844Z,4.10
2022-12-08T11:50:45.124Z,3.97
2022-12-08T11:53:23.810Z,4.04
2022-12-08T11:55:58.820Z,4.09
2022-12-08T11:58:33.412Z,4.06
2022-12-08T12:01:02.029Z,4.04
2022-12-08T12:03:36.082Z,4.06
2022-12-08T12:06:53.406Z,4.15
2022-12-08T12:09:24.765Z,4.10
2022-12-08T12:12:17.018Z,4.15
2022-12-08T12:15:19.501Z,4.16
2022-12-08T12:17:52.065Z,4.21
2022-12-08T12:20:26.183Z,4.30
2022-12-08T12:23:00.144Z,4.17
2022-12-08T12:25:29.373Z,4.19
2022-12-08T12:28:04.073Z,4.22
2022-12-08T12:30:53.234Z,4.13
2022-12-08T12:33:22.423Z,4.13
2022-12-08T12:35:51.030Z,4.10
2022-12-08T12:38:45.159Z,4.12
2022-12-08T12:41:22.348Z,4.13
2022-12-08T12:44:24.285Z,4.22
2022-12-08T12:46:58.370Z,4.18
2022-12-08T12:50:06.676Z,4.21
2022-12-08T12:52:50.169Z,4.23
2022-12-08T12:55:24.688Z,4.34
2022-12-08T12:57:54.836Z,4.39
2022-12-08T13:00:26.306Z,4.49
2022-12-08T13:02:56.737Z,4.46
2022-12-08T13:05:27.947Z,4.35
2022-12-08T13:08:02.119Z,4.32
2022-12-08T13:10:33.027Z,4.30
2022-12-08T13:13:19.108Z,4.22
2022-12-08T13:15:54.131Z,4.24
2022-12-08T13:18:27.012Z,4.22
2022-12-08T13:21:06.919Z,4.16
2022-12-08T13:23:47.258Z,4.17
2022-12-08T13:26:24.416Z,4.10
2022-12-08T13:29:16.168Z,4.08
2022-12-08T13:31:50.876Z,4.13
2022-12-08T13:34:24.077Z,4.10
2022-12-08T13:37:05.297Z,4.09
2022-12-08T13:39:42.123Z,4.01
2022-12-08T13:42:20.921Z,4.10
2022-12-08T13:48:20.549Z,4.04
2022-12-08T13:51:23.671Z,4.00
2022-12-08T13:54:36.735Z,4.12
2022-12-08T13:57:00.926Z,4.12
2022-12-08T13:59:28.088Z,4.07
2022-12-08T14:01:58.454Z,4.02
2022-12-08T14:04:47.780Z,4.09
2022-12-08T14:07:17.590Z,4.16
2022-12-08T14:09:47.478Z,4.13
2022-12-08T14:12:21.371Z,4.09
2022-12-08T14:15:03.020Z,4.18
2022-12-08T14:17:34.923Z,4.16
2022-12-08T14:20:24.566Z,4.11
2022-12-08T14:22:57.022Z,4.05
2022-12-08T14:25:25.562Z,4.14
2022-12-08T14:27:59.734Z,3.97
2022-12-08T14:30:33.681Z,4.03
2022-12-08T14:33:03.495Z,3.92
2022-12-08T14:35:35.533Z,3.95
2022-12-08T14:38:05.567Z,3.88
2022-12-08T14:40:35.451Z,3.88
2022-12-08T14:43:18.680Z,3.72
2022-12-08T14:45:49.235Z,3.66
2022-12-08T14:48:25.681Z,3.64
2022-12-08T14:51:02.860Z,3.64
2022-12-08T14:53:37.824Z,3.70
2022-12-08T14:56:09.302Z,3.67
2022-12-08T14:58:37.595Z,3.63
2022-12-08T15:01:10.679Z,3.53
2022-12-08T15:03:38.823Z,3.47
2022-12-08T15:06:11.184Z,3.55
2022-12-08T15:08:53.766Z,3.52
2022-12-08T15:11:34.745Z,3.49
2022-12-08T15:14:03.386Z,3.61
2022-12-08T15:16:39.499Z,3.57
2022-12-08T15:19:17.998Z,3.51
2022-12-08T15:21:48.399Z,3.50
2022-12-08T15:24:21.044Z,3.50
2022-12-08T15:26:51.063Z,3.50
2022-12-08T15:29:22.685Z,3.50
2022-12-08T15:31:55.451Z,3.51
2022-12-08T15:34:23.668Z,3.51
2022-12-08T15:36:55.276Z,3.56
2022-12-08T15:39:32.816Z,3.54
2022-12-08T15:42:01.614Z,3.55
2022-12-08T15:44:32.752Z,3.56
2022-12-08T15:47:01.318Z,3.52
2022-12-08T15:49:29.602Z,3.50
2022-12-08T15:52:11.050Z,3.55
2022-12-08T15:54:40.292Z,3.45
2022-12-08T15:57:22.064Z,3.46
2022-12-08T15:59:58.761Z,3.42
2022-12-08T16:02:49.130Z,3.43
2022-12-08T16:05:41.484Z,3.34
2022-12-08T16:08:30.023Z,3.37
2022-12-08T16:11:41.218Z,3.21
2022-12-08T16:14:00.246Z,3.22
2022-12-08T16:16:36.449Z,3.21
2022-12-08T16:19:15.031Z,3.28
2022-12-08T16:24:33.141Z,3.25
2022-12-08T16:29:53.941Z,3.29
2022-12-08T16:32:22.736Z,3.13
2022-12-08T16:34:51.145Z,3.06
2022-12-08T16:37:20.797Z,3.09
2022-12-08T16:39:51.210Z,3.06
2022-12-08T16:42:38.931Z,3.07
2022-12-08T16:45:13.353Z,3.10
2022-12-08T16:47:43.251Z,3.13
2022-12-08T16:50:13.443Z,3.10
2022-12-08T16:52:45.215Z,3.14
2022-12-08T16:55:16.719Z,3.11
2022-12-08T16:57:45.757Z,3.05
2022-12-08T17:00:16.641Z,3.06
2022-12-08T17:02:45.534Z,3.08
2022-12-08T17:05:16.220Z,3.02
2022-12-08T17:07:48.592Z,3.00
2022-12-08T17:10:20.796Z,2.93
2022-12-08T17:12:49.104Z,2.86
2022-12-08T17:15:18.927Z,2.80
2022-12-08T17:17:46.913Z,2.75
2022-12-08T17:20:17.635Z,2.80
2022-12-08T17:22:45.906Z,2.83
2022-12-08T17:25:14.562Z,2.77
2022-12-08T17:27:44.611Z,2.77
2022-12-08T17:30:15.823Z,2.78
2022-12-08T17:32:44.119Z,2.78
2022-12-08T17:35:13.627Z,2.70
2022-12-08T17:37:41.598Z,2.69
2022-12-08T17:40:10.866Z,2.65
2022-12-08T17:42:39.283Z,2.67
2022-12-08T17:45:10.558Z,2.64
2022-12-08T17:47:38.994Z,2.71
2022-12-08T17:50:08.885Z,2.63
2022-12-08T17:52:37.157Z,2.51
2022-12-08T17:55:06.914Z,2.48
2022-12-08T17:57:35.179Z,2.55
2022-12-08T18:00:04.322Z,2.50
2022-12-08T18:02:35.684Z,2.46
2022-12-08T18:05:04.044Z,2.54
2022-12-08T18:07:40.957Z,2.51
2022-12-08T18:10:09.930Z,2.53
2022-12-08T18:12:41.318Z,2.49
2022-12-08T18:15:11.655Z,2.44
2022-12-08T18:17:43.320Z,2.46
2022-12-08T18:20:12.352Z,2.51
2022-12-08T18:22:41.207Z,2.37
2022-12-08T18:25:10.225Z,2.37
2022-12-08T18:27:43.031Z,2.24
2022-12-08T18:30:15.593Z,2.26
2022-12-08T18:32:45.141Z,2.26
2022-12-08T18:35:13.392Z,2.31
2022-12-08T18:37:43.238Z,2.27
2022-12-08T18:40:12.664Z,2.22
2022-12-08T18:42:40.929Z,2.18
2022-12-08T18:45:09.913Z,2.26
2022-12-08T18:47:39.812Z,2.24
2022-12-08T18:50:11.016Z,2.33
2022-12-08T18:52:39.001Z,2.29
2022-12-08T18:55:08.196Z,2.26
2022-12-08T18:57:38.426Z,2.22
2022-12-08T19:00:08.995Z,2.15
2022-12-08T19:02:38.661Z,2.15
2022-12-08T19:05:08.567Z,2.15
2022-12-08T19:07:38.249Z,2.15
2022-12-08T19:10:08.096Z,2.04
2022-12-08T19:12:36.612Z,2.01
2022-12-08T19:15:05.261Z,2.13
2022-12-08T19:17:33.651Z,2.08
2022-12-08T19:20:01.642Z,2.13
2022-12-08T19:22:30.311Z,2.13
2022-12-08T19:24:59.798Z,2.21
2022-12-08T19:27:28.977Z,2.25
2022-12-08T19:29:57.263Z,2.28
2022-12-08T19:32:25.110Z,2.36
2022-12-08T19:34:53.186Z,2.36
2022-12-08T19:37:21.417Z,2.43
2022-12-08T19:40:07.042Z,2.36
2022-12-08T19:42:54.117Z,2.34
2022-12-08T19:45:23.410Z,2.37
2022-12-08T19:47:51.398Z,2.39
2022-12-08T19:50:37.892Z,2.37
2022-12-08T19:53:07.477Z,2.39
2022-12-08T19:55:35.664Z,2.26
2022-12-08T19:58:06.442Z,2.26
2022-12-08T20:00:41.150Z,2.30
2022-12-08T20:03:09.319Z,2.31
2022-12-08T20:05:38.375Z,2.22
2022-12-08T20:08:06.915Z,2.09
2022-12-08T20:10:37.681Z,2.05
2022-12-08T20:13:25.318Z,2.08
2022-12-08T20:15:53.744Z,2.04
2022-12-08T20:18:22.864Z,1.94
2022-12-08T20:20:51.410Z,1.92
2022-12-08T20:23:20.574Z,1.94
2022-12-08T20:25:48.883Z,1.85
2022-12-08T20:28:20.118Z,1.91
2022-12-08T20:30:49.192Z,1.80
2022-12-08T20:33:21.242Z,1.95
2022-12-08T20:35:50.790Z,1.82
2022-12-08T20:38:20.304Z,1.73
2022-12-08T20:40:48.132Z,1.78
2022-12-08T20:43:16.208Z,1.71
2022-12-08T20:45:45.728Z,1.77
2022-12-08T20:48:14.683Z,1.65
2022-12-08T20:50:42.884Z,1.65
2022-12-08T20:53:12.932Z,1.83
2022-12-08T20:55:41.946Z,1.85
2022-12-08T20:58:10.232Z,1.72
2022-12-08T21:00:39.112Z,1.68
2022-12-08T21:03:08.790Z,1.70
2022-12-08T21:05:39.885Z,1.59
2022-12-08T21:08:08.393Z,1.61
2022-12-08T21:10:40.784Z,1.46
2022-12-08T21:13:12.272Z,1.49
2022-12-08T21:15:40.561Z,1.49
2022-12-08T21:18:10.252Z,1.40
2022-12-08T21:20:38.536Z,1.33
2022-12-08T21:23:06.560Z,1.37
2022-12-08T21:25:34.753Z,1.33
2022-12-08T21:28:02.814Z,1.36
2022-12-08T21:34:23.052Z,1.37
2022-12-08T21:36:51.084Z,1.34
2022-12-08T21:39:18.871Z,1.33
2022-12-08T21:42:05.345Z,1.37
2022-12-08T21:44:35.664Z,1.27
2022-12-08T21:47:04.038Z,1.23
2022-12-08T21:49:34.013Z,1.31
2022-12-08T21:52:02.088Z,1.32
2022-12-08T21:54:32.913Z,1.23
2022-12-08T21:57:01.763Z,1.11
2022-12-08T21:59:34.515Z,1.03
2022-12-08T22:02:02.879Z,1.11
2022-12-08T22:04:35.728Z,1.20
2022-12-08T22:07:07.836Z,1.07
2022-12-08T22:09:36.433Z,0.94
2022-12-08T22:12:04.728Z,1.00
2022-12-08T22:14:33.017Z,1.10
2022-12-08T22:17:01.733Z,1.12
2022-12-08T22:19:31.673Z,1.11
2022-12-08T22:22:01.906Z,1.11
2022-12-08T22:24:41.389Z,1.13
2022-12-08T22:27:16.563Z,1.15
2022-12-08T22:36:56.113Z,0.94
2022-12-08T22:39:25.570Z,0.98
2022-12-08T22:41:53.666Z,1.01
2022-12-08T22:44:21.776Z,0.82
2022-12-08T22:46:49.625Z,0.58
2022-12-08T22:49:33.900Z,0.56
2022-12-08T22:52:05.190Z,0.46
2022-12-08T22:54:35.132Z,0.55
2022-12-08T22:57:03.379Z,0.45
2022-12-08T22:59:33.338Z,0.49
2022-12-08T23:02:02.240Z,0.47
2022-12-08T23:04:32.951Z,0.47
2022-12-08T23:07:01.355Z,0.42
2022-12-08T23:09:29.863Z,0.29
2022-12-08T23:11:59.574Z,0.23
2022-12-08T23:14:27.699Z,0.39
2022-12-08T23:16:55.495Z,0.38
2022-12-08T23:19:40.843Z,0.49
2022-12-08T23:22:10.151Z,0.45
2022-12-08T23:24:39.641Z,0.45
2022-12-08T23:27:10.895Z,0.50
2022-12-08T23:29:39.356Z,0.51
2022-12-08T23:32:07.937Z,0.54
2022-12-08T23:34:36.335Z,0.57
2022-12-08T23:37:04.653Z,0.57
2022-12-08T23:39:53.129Z,0.57
2022-12-08T23:42:22.652Z,0.55
2022-12-08T23:44:50.471Z,0.49
2022-12-08T23:47:18.853Z,0.45
2022-12-08T23:49:47.273Z,0.37
2022-12-08T23:52:15.499Z,0.36
2022-12-08T23:54:47.005Z,0.32
2022-12-08T23:57:15.279Z,0.27
2022-12-08T23:59:45.014Z,0.32
